createdAt,value
2018-10-12T00:01:20.668Z,96871.91
2018-10-12T00:03:49.482Z,96878.88
2018-10-12T00:06:18.310Z,96873.98
2018-10-12T00:08:47.143Z,96879.26
2018-10-12T00:11:15.965Z,96882.66
2018-10-12T00:13:44.987Z,96882.36
2018-10-12T00:16:13.827Z,96886.70
2018-10-12T00:18:42.687Z,96888.45
2018-10-12T00:21:11.491Z,96892.44
2018-10-12T00:23:40.327Z,96895.36
2018-10-12T00:26:09.181Z,96900.09
2018-10-12T00:28:38.046Z,96901.14
2018-10-12T00:31:06.979Z,96915.97
2018-10-12T00:33:35.816Z,96915.48
2018-10-12T00:36:04.687Z,96917.67
2018-10-12T00:38:33.551Z,96925.74
2018-10-12T00:41:02.403Z,96929.63
2018-10-12T00:43:31.232Z,96929.81
2018-10-12T00:46:00.099Z,96937.23
2018-10-12T00:48:28.946Z,96934.72
2018-10-12T00:50:57.805Z,96935.23
2018-10-12T00:53:26.727Z,96940.00
2018-10-12T00:55:55.563Z,96942.47
2018-10-12T00:58:24.379Z,96935.86
2018-10-12T01:00:53.230Z,96937.91
2018-10-12T01:03:22.055Z,96940.26
2018-10-12T01:05:51.395Z,96937.89
2018-10-12T01:08:20.739Z,96946.75
2018-10-12T01:10:49.983Z,96945.23
2018-10-12T01:13:19.295Z,96953.30
2018-10-12T01:15:48.583Z,96953.86
2018-10-12T01:18:17.836Z,96966.34
2018-10-12T01:20:47.052Z,96967.92
2018-10-12T01:23:16.351Z,96966.34
2018-10-12T01:25:45.626Z,96969.48
2018-10-12T01:28:14.838Z,96963.05
2018-10-12T01:30:44.023Z,96965.91
2018-10-12T01:33:13.217Z,96966.87
2018-10-12T01:35:42.399Z,96959.03
2018-10-12T01:38:11.388Z,96958.52
2018-10-12T01:40:40.608Z,96954.67
2018-10-12T01:43:09.786Z,96950.55
2018-10-12T01:45:38.997Z,96955.96
2018-10-12T01:48:08.229Z,96963.77
2018-10-12T01:50:37.690Z,96966.42
2018-10-12T01:53:06.964Z,96972.39
2018-10-12T01:55:36.185Z,96978.14
2018-10-12T01:58:05.376Z,96976.16
2018-10-12T02:00:34.489Z,96978.08
2018-10-12T02:03:03.693Z,96978.88
2018-10-12T02:05:32.874Z,96983.03
2018-10-12T02:08:02.080Z,96986.96
2018-10-12T02:10:31.209Z,96986.73
2018-10-12T02:13:00.282Z,96992.46
2018-10-12T02:15:35.542Z,96997.45
2018-10-12T02:18:04.829Z,97005.62
2018-10-12T02:20:34.005Z,96999.17
2018-10-12T02:23:03.090Z,97004.34
2018-10-12T02:25:32.198Z,97007.79
2018-10-12T02:28:01.439Z,97007.81
2018-10-12T02:30:30.221Z,97010.94
2018-10-12T02:32:59.001Z,97019.98
2018-10-12T02:35:27.790Z,97016.90
2018-10-12T02:37:56.561Z,97014.31
2018-10-12T02:40:25.388Z,97021.78
2018-10-12T02:42:54.165Z,97021.30
2018-10-12T02:45:22.985Z,97026.45
2018-10-12T02:47:51.764Z,97038.09
2018-10-12T02:50:20.550Z,97038.84
2018-10-12T02:52:49.333Z,97036.42
2018-10-12T02:55:18.095Z,97042.70
2018-10-12T02:57:46.936Z,97045.60
2018-10-12T03:00:15.726Z,97045.90
2018-10-12T03:02:44.533Z,97049.78
2018-10-12T03:05:13.350Z,97064.00
2018-10-12T03:07:42.370Z,97061.16
2018-10-12T03:10:11.514Z,97066.84
2018-10-12T03:12:40.709Z,97066.09
2018-10-12T03:15:09.908Z,97069.16
2018-10-12T03:17:39.004Z,97071.00
2018-10-12T03:20:08.200Z,97075.64
2018-10-12T03:22:37.281Z,97074.13
2018-10-12T03:25:06.629Z,97079.02
2018-10-12T03:27:46.549Z,97078.52
2018-10-12T03:30:15.657Z,97081.13
2018-10-12T03:32:44.765Z,97087.61
2018-10-12T03:35:13.941Z,97082.97
2018-10-12T03:37:43.123Z,97085.81
2018-10-12T03:40:12.368Z,97088.94
2018-10-12T03:42:41.602Z,97095.15
2018-10-12T03:45:10.861Z,97092.06
2018-10-12T03:47:40.133Z,97096.22
2018-10-12T03:50:09.316Z,97097.03
2018-10-12T03:52:38.145Z,97098.06
2018-10-12T03:55:07.130Z,97102.22
2018-10-12T03:57:35.957Z,97107.65
2018-10-12T04:00:05.765Z,97117.48
2018-10-12T04:02:34.565Z,97123.42
2018-10-12T04:05:03.445Z,97120.08
2018-10-12T04:07:32.223Z,97119.56
2018-10-12T04:10:01.009Z,97120.86
2018-10-12T04:12:29.849Z,97117.48
2018-10-12T04:14:58.618Z,97117.75
2018-10-12T04:17:27.430Z,97122.41
2018-10-12T04:19:56.201Z,97122.42
2018-10-12T04:22:26.185Z,97124.48
2018-10-12T04:24:54.984Z,97127.57
2018-10-12T04:27:23.774Z,97132.48
2018-10-12T04:29:52.532Z,97132.21
2018-10-12T04:32:21.379Z,97134.02
2018-10-12T04:34:50.184Z,97133.23
2018-10-12T04:37:19.022Z,97132.70
2018-10-12T04:40:15.924Z,97145.84
2018-10-12T04:42:44.829Z,97150.24
2018-10-12T04:45:14.160Z,97159.27
2018-10-12T04:47:43.006Z,97164.16
2018-10-12T04:50:11.817Z,97165.67
2018-10-12T04:52:40.778Z,97160.77
2018-10-12T04:55:09.621Z,97164.13
2018-10-12T04:57:38.442Z,97172.39
2018-10-12T05:00:07.296Z,97168.49
2018-10-12T05:02:36.125Z,97179.86
2018-10-12T05:05:04.961Z,97180.36
2018-10-12T05:07:33.799Z,97179.06
2018-10-12T05:10:02.614Z,97182.93
2018-10-12T05:12:31.417Z,97184.19
2018-10-12T05:15:00.229Z,97191.11
2018-10-12T05:17:29.001Z,97188.59
2018-10-12T05:19:57.790Z,97194.33
2018-10-12T05:22:26.559Z,97197.14
2018-10-12T05:24:55.330Z,97198.66
2018-10-12T05:27:24.116Z,97202.73
2018-10-12T05:29:52.873Z,97205.80
2018-10-12T05:32:21.648Z,97207.12
2018-10-12T05:34:50.925Z,97215.88
2018-10-12T05:37:20.089Z,97210.70
2018-10-12T05:39:49.221Z,97215.34
2018-10-12T05:42:18.642Z,97223.06
2018-10-12T05:44:47.825Z,97220.49
2018-10-12T05:47:17.025Z,97228.48
2018-10-12T05:49:57.689Z,97230.28
2018-10-12T05:52:26.904Z,97236.97
2018-10-12T05:54:56.125Z,97236.45
2018-10-12T05:57:25.339Z,97245.77
2018-10-12T05:59:54.523Z,97249.18
2018-10-12T06:02:23.901Z,97245.77
2018-10-12T06:04:53.127Z,97246.03
2018-10-12T06:07:22.386Z,97251.43
2018-10-12T06:09:51.622Z,97257.47
2018-10-12T06:12:20.934Z,97257.96
2018-10-12T06:14:50.049Z,97260.29
2018-10-12T06:17:19.017Z,97266.73
2018-10-12T06:19:47.799Z,97270.90
2018-10-12T06:22:16.596Z,97273.76
2018-10-12T06:24:45.393Z,97275.33
2018-10-12T06:27:14.233Z,97280.48
2018-10-12T06:29:43.009Z,97283.36
2018-10-12T06:32:11.816Z,97288.57
2018-10-12T06:34:40.621Z,97285.27
2018-10-12T06:37:09.412Z,97285.03
2018-10-12T06:39:38.205Z,97281.92
2018-10-12T06:42:07.000Z,97289.16
2018-10-12T06:44:35.797Z,97293.82
2018-10-12T06:47:04.602Z,97297.18
2018-10-12T06:49:33.372Z,97299.77
2018-10-12T06:52:02.161Z,97298.73
2018-10-12T06:54:30.950Z,97311.95
2018-10-12T06:56:59.725Z,97314.80
2018-10-12T06:59:28.520Z,97314.27
2018-10-12T07:01:57.361Z,97316.05
2018-10-12T07:04:26.226Z,97321.22
2018-10-12T07:06:55.012Z,97325.56
2018-10-12T07:09:23.833Z,97333.52
2018-10-12T07:11:52.621Z,97335.75
2018-10-12T07:14:21.382Z,97335.50
2018-10-12T07:16:50.181Z,97329.47
2018-10-12T07:19:18.982Z,97335.73
2018-10-12T07:21:47.775Z,97342.55
2018-10-12T07:24:16.548Z,97336.26
2018-10-12T07:26:45.453Z,97345.14
2018-10-12T07:29:14.254Z,97342.34
2018-10-12T07:31:43.017Z,97334.72
2018-10-12T07:34:11.794Z,97340.59
2018-10-12T07:36:40.561Z,97349.09
2018-10-12T07:39:09.698Z,97353.91
2018-10-12T07:41:38.505Z,97354.34
2018-10-12T07:44:07.490Z,97355.14
2018-10-12T07:46:36.322Z,97351.72
2018-10-12T07:49:05.150Z,97355.58
2018-10-12T07:51:33.930Z,97356.31
2018-10-12T07:54:02.753Z,97349.28
2018-10-12T07:56:31.554Z,97354.45
2018-10-12T07:59:00.388Z,97348.28
2018-10-12T08:01:29.163Z,97356.13
2018-10-12T08:03:57.937Z,97357.89
2018-10-12T08:06:27.174Z,97363.81
2018-10-12T08:08:55.993Z,97365.33
2018-10-12T08:11:24.770Z,97373.26
2018-10-12T08:13:53.601Z,97377.17
2018-10-12T08:16:22.320Z,97383.70
2018-10-12T08:18:51.225Z,97380.11
2018-10-12T08:21:20.063Z,97377.83
2018-10-12T08:23:48.879Z,97384.59
2018-10-12T08:26:17.674Z,97390.17
2018-10-12T08:28:46.429Z,97397.74
2018-10-12T08:31:15.234Z,97390.68
2018-10-12T08:33:44.118Z,97394.03
2018-10-12T08:36:13.022Z,97388.39
2018-10-12T08:38:41.801Z,97389.31
2018-10-12T08:41:10.575Z,97392.34
2018-10-12T08:43:39.379Z,97395.58
2018-10-12T08:46:08.181Z,97397.67
2018-10-12T08:48:36.951Z,97396.47
2018-10-12T08:51:05.718Z,97400.42
2018-10-12T08:53:34.502Z,97399.83
2018-10-12T08:56:03.348Z,97398.25
2018-10-12T08:58:32.146Z,97397.19
2018-10-12T09:01:00.930Z,97394.80
2018-10-12T09:03:29.708Z,97396.78
2018-10-12T09:05:58.469Z,97397.55
2018-10-12T09:08:27.258Z,97392.53
2018-10-12T09:10:56.033Z,97387.04
2018-10-12T09:13:24.824Z,97393.27
2018-10-12T09:15:53.590Z,97391.91
2018-10-12T09:18:22.417Z,97385.95
2018-10-12T09:20:51.218Z,97386.74
2018-10-12T09:23:20.009Z,97389.47
2018-10-12T09:25:48.820Z,97385.64
2018-10-12T09:28:17.578Z,97390.29
2018-10-12T09:30:46.406Z,97389.63
2018-10-12T09:33:15.189Z,97390.17
2018-10-12T09:35:43.989Z,97388.03
2018-10-12T09:38:12.749Z,97386.55
2018-10-12T09:40:41.526Z,97384.56
2018-10-12T09:43:10.304Z,97386.84
2018-10-12T09:45:39.197Z,97389.34
2018-10-12T09:48:07.999Z,97385.84
2018-10-12T09:50:36.785Z,97390.47
2018-10-12T09:53:05.547Z,97385.34
2018-10-12T09:55:34.308Z,97381.66
2018-10-12T09:58:03.069Z,97384.11
2018-10-12T10:00:37.081Z,97377.60
2018-10-12T10:03:11.080Z,97387.03
2018-10-12T10:05:39.844Z,97387.05
2018-10-12T10:08:08.775Z,97385.95
2018-10-12T10:10:37.452Z,97392.63
2018-10-12T10:13:06.228Z,97392.76
2018-10-12T10:15:35.050Z,97392.75
2018-10-12T10:18:03.817Z,97389.47
2018-10-12T10:20:32.628Z,97399.10
2018-10-12T10:23:01.402Z,97392.96
2018-10-12T10:25:30.197Z,97397.46
2018-10-12T10:27:58.969Z,97402.61
2018-10-12T10:30:27.724Z,97398.97
2018-10-12T10:32:56.485Z,97391.98
2018-10-12T10:35:25.253Z,97390.09
2018-10-12T10:37:54.058Z,97390.66
2018-10-12T10:40:22.833Z,97392.39
2018-10-12T10:42:51.590Z,97392.28
2018-10-12T10:45:20.381Z,97390.70
2018-10-12T10:47:49.588Z,97378.96
2018-10-12T10:50:18.348Z,97380.30
2018-10-12T10:52:47.184Z,97368.98
2018-10-12T10:55:16.010Z,97366.97
2018-10-12T10:57:44.793Z,97369.23
2018-10-12T11:00:13.733Z,97361.68
2018-10-12T11:02:42.504Z,97361.14
2018-10-12T11:05:11.359Z,97360.95
2018-10-12T11:07:40.146Z,97351.51
2018-10-12T11:10:08.977Z,97362.89
2018-10-12T11:12:37.858Z,97352.44
2018-10-12T11:15:07.255Z,97355.55
2018-10-12T11:17:36.052Z,97357.48
2018-10-12T11:20:04.906Z,97357.15
2018-10-12T11:22:33.665Z,97353.77
2018-10-12T11:25:02.480Z,97349.27
2018-10-12T11:27:31.254Z,97350.16
2018-10-12T11:30:00.076Z,97357.70
2018-10-12T11:32:28.829Z,97355.55
2018-10-12T11:34:57.627Z,97353.00
2018-10-12T11:37:26.386Z,97354.80
2018-10-12T11:39:55.217Z,97353.31
2018-10-12T11:42:28.413Z,97347.02
2018-10-12T11:44:57.241Z,97342.59
2018-10-12T11:47:25.970Z,97344.55
2018-10-12T11:49:54.741Z,97341.34
2018-10-12T11:52:23.524Z,97339.47
2018-10-12T11:54:52.301Z,97334.72
2018-10-12T11:57:21.061Z,97329.60
2018-10-12T11:59:49.848Z,97323.70
2018-10-12T12:02:18.719Z,97325.43
2018-10-12T12:04:47.480Z,97321.47
2018-10-12T12:07:16.261Z,97323.75
2018-10-12T12:09:45.033Z,97326.94
2018-10-12T12:12:13.813Z,97327.21
2018-10-12T12:14:42.594Z,97327.79
2018-10-12T12:17:11.360Z,97323.81
2018-10-12T12:19:40.133Z,97320.73
2018-10-12T12:22:08.914Z,97324.23
2018-10-12T12:24:37.683Z,97313.59
2018-10-12T12:27:06.513Z,97319.70
2018-10-12T12:29:35.297Z,97314.56
2018-10-12T12:32:04.115Z,97319.07
2018-10-12T12:34:32.935Z,97316.56
2018-10-12T12:37:01.740Z,97316.22
2018-10-12T12:39:30.532Z,97313.75
2018-10-12T12:41:59.333Z,97315.81
2018-10-12T12:44:28.325Z,97315.73
2018-10-12T12:46:57.112Z,97319.64
2018-10-12T12:49:26.154Z,97317.46
2018-10-12T12:51:54.710Z,97311.82
2018-10-12T12:54:23.577Z,97311.41
2018-10-12T12:56:52.368Z,97312.47
2018-10-12T12:59:21.130Z,97307.58
2018-10-12T13:01:49.914Z,97313.27
2018-10-12T13:04:18.677Z,97308.59
2018-10-12T13:06:47.489Z,97316.29
2018-10-12T13:09:16.278Z,97310.92
2018-10-12T13:11:45.074Z,97312.30
2018-10-12T13:14:13.844Z,97310.26
2018-10-12T13:16:42.648Z,97305.69
2018-10-12T13:19:11.444Z,97316.47
2018-10-12T13:21:40.205Z,97309.05
2018-10-12T13:24:08.980Z,97310.16
2018-10-12T13:26:37.765Z,97307.14
2018-10-12T13:29:06.816Z,97296.19
2018-10-12T13:31:35.581Z,97302.70
2018-10-12T13:34:04.381Z,97306.58
2018-10-12T13:36:33.242Z,97306.38
2018-10-12T13:39:02.025Z,97309.17
2018-10-12T13:41:30.825Z,97308.56
2018-10-12T13:43:59.611Z,97315.03
2018-10-12T13:46:28.436Z,97310.04
2018-10-12T13:48:57.245Z,97317.32
2018-10-12T13:51:26.391Z,97312.30
2018-10-12T13:53:55.208Z,97316.09
2018-10-12T13:56:23.981Z,97314.61
2018-10-12T13:58:52.832Z,97312.60
2018-10-12T14:01:21.603Z,97315.88
2018-10-12T14:03:50.378Z,97317.98
2018-10-12T14:06:19.185Z,97320.68
2018-10-12T14:08:47.973Z,97314.56
2018-10-12T14:11:16.753Z,97317.55
2018-10-12T14:13:45.548Z,97314.09
2018-10-12T14:16:14.590Z,97314.55
2018-10-12T14:18:43.458Z,97314.55
2018-10-12T14:21:12.242Z,97316.09
2018-10-12T14:23:47.397Z,97318.72
2018-10-12T14:26:16.229Z,97313.92
2018-10-12T14:28:45.053Z,97317.17
2018-10-12T14:31:13.854Z,97323.27
2018-10-12T14:33:42.673Z,97316.08
2018-10-12T14:36:11.456Z,97318.27
2018-10-12T14:38:40.233Z,97316.02
2018-10-12T14:41:09.030Z,97312.90
2018-10-12T14:43:37.812Z,97314.12
2018-10-12T14:46:06.937Z,97309.52
2018-10-12T14:48:35.711Z,97307.03
2018-10-12T14:51:04.504Z,97308.23
2018-10-12T14:53:33.357Z,97311.64
2018-10-12T14:56:02.105Z,97310.66
2018-10-12T14:58:37.383Z,97307.41
2018-10-12T15:01:06.206Z,97311.34
2018-10-12T15:03:34.988Z,97307.84
2018-10-12T15:06:03.880Z,97311.56
2018-10-12T15:08:32.693Z,97309.34
2018-10-12T15:11:01.531Z,97303.87
2018-10-12T15:13:30.337Z,97309.61
2018-10-12T15:15:59.132Z,97306.73
2018-10-12T15:18:27.925Z,97309.83
2018-10-12T15:20:56.771Z,97310.48
2018-10-12T15:23:25.514Z,97316.11
2018-10-12T15:25:54.301Z,97317.48
2018-10-12T15:28:23.069Z,97318.17
2018-10-12T15:30:51.878Z,97315.81
2018-10-12T15:33:20.661Z,97314.02
2018-10-12T15:35:49.484Z,97314.89
2018-10-12T15:38:18.273Z,97314.77
2018-10-12T15:40:47.147Z,97316.48
2018-10-12T15:43:16.038Z,97319.66
2018-10-12T15:45:44.804Z,97311.72
2018-10-12T15:48:13.609Z,97309.64
2018-10-12T15:50:42.422Z,97305.73
2018-10-12T15:53:11.201Z,97309.97
2018-10-12T15:55:40.027Z,97318.63
2018-10-12T15:58:08.953Z,97314.88
2018-10-12T16:00:37.734Z,97323.31
2018-10-12T16:03:06.509Z,97319.78
2018-10-12T16:05:35.301Z,97321.93
2018-10-12T16:08:04.134Z,97325.19
2018-10-12T16:10:33.033Z,97330.08
2018-10-12T16:13:01.846Z,97324.62
2018-10-12T16:15:30.617Z,97331.95
2018-10-12T16:17:59.393Z,97323.30
2018-10-12T16:20:28.190Z,97334.87
2018-10-12T16:22:56.973Z,97334.34
2018-10-12T16:26:06.047Z,97332.42
2018-10-12T16:28:34.861Z,97331.65
2018-10-12T16:31:03.694Z,97333.47
2018-10-12T16:33:32.470Z,97332.34
2018-10-12T16:36:01.394Z,97339.18
2018-10-12T16:38:30.118Z,97345.59
2018-10-12T16:40:58.904Z,97344.53
2018-10-12T16:43:27.694Z,97343.16
2018-10-12T16:45:56.493Z,97352.50
2018-10-12T16:48:25.298Z,97351.36
2018-10-12T16:50:54.129Z,97354.34
2018-10-12T16:53:23.001Z,97362.19
2018-10-12T16:55:51.773Z,97365.53
2018-10-12T16:58:20.629Z,97361.41
2018-10-12T17:00:49.363Z,97361.61
2018-10-12T17:03:18.136Z,97364.58
2018-10-12T17:05:46.917Z,97366.56
2018-10-12T17:08:15.682Z,97363.75
2018-10-12T17:10:44.480Z,97366.73
2018-10-12T17:13:13.249Z,97363.77
2018-10-12T17:15:42.030Z,97359.45
2018-10-12T17:18:10.802Z,97372.52
2018-10-12T17:20:39.602Z,97367.98
2018-10-12T17:23:08.817Z,97368.91
2018-10-12T17:25:37.593Z,97368.21
2018-10-12T17:28:07.337Z,97376.45
2018-10-12T17:30:36.231Z,97379.00
2018-10-12T17:33:04.978Z,97379.69
2018-10-12T17:35:33.765Z,97379.27
2018-10-12T17:38:02.544Z,97389.74
2018-10-12T17:40:31.337Z,97384.98
2018-10-12T17:43:00.174Z,97384.03
2018-10-12T17:45:28.964Z,97390.67
2018-10-12T17:47:57.751Z,97390.23
2018-10-12T17:50:26.601Z,97389.38
2018-10-12T17:52:55.389Z,97390.54
2018-10-12T17:55:24.173Z,97397.13
2018-10-12T17:57:52.942Z,97395.42
2018-10-12T18:00:21.812Z,97399.38
2018-10-12T18:02:50.565Z,97395.23
2018-10-12T18:05:19.407Z,97393.45
2018-10-12T18:07:48.217Z,97397.88
2018-10-12T18:10:17.009Z,97397.52
2018-10-12T18:12:45.808Z,97399.65
2018-10-12T18:15:15.040Z,97396.13
2018-10-12T18:17:43.844Z,97399.61
2018-10-12T18:20:13.252Z,97390.61
2018-10-12T18:22:42.070Z,97396.22
2018-10-12T18:25:10.882Z,97399.01
2018-10-12T18:27:39.670Z,97402.31
2018-10-12T18:30:08.461Z,97403.56
2018-10-12T18:32:37.263Z,97407.41
2018-10-12T18:35:06.048Z,97408.33
2018-10-12T18:37:34.831Z,97405.55
2018-10-12T18:40:03.669Z,97412.30
2018-10-12T18:42:32.496Z,97410.62
2018-10-12T18:45:01.301Z,97412.09
2018-10-12T18:47:30.119Z,97415.09
2018-10-12T18:49:58.965Z,97415.70
2018-10-12T18:52:27.749Z,97410.37
2018-10-12T18:54:56.537Z,97410.41
2018-10-12T18:57:25.413Z,97412.94
2018-10-12T18:59:54.209Z,97419.34
2018-10-12T19:02:22.984Z,97420.24
2018-10-12T19:04:51.829Z,97417.91
2018-10-12T19:07:20.626Z,97418.05
2018-10-12T19:09:49.389Z,97421.73
2018-10-12T19:12:18.213Z,97419.19
2018-10-12T19:14:47.021Z,97422.08
2018-10-12T19:17:15.819Z,97422.16
2018-10-12T19:19:44.680Z,97424.70
2018-10-12T19:22:13.421Z,97423.95
2018-10-12T19:24:42.314Z,97422.42
2018-10-12T19:27:11.098Z,97422.75
2018-10-12T19:29:39.922Z,97430.05
2018-10-12T19:32:08.674Z,97428.80
2018-10-12T19:34:37.525Z,97426.74
2018-10-12T19:37:06.611Z,97428.33
2018-10-12T19:39:35.389Z,97427.62
2018-10-12T19:42:04.178Z,97427.92
2018-10-12T19:44:32.981Z,97438.88
2018-10-12T19:47:01.805Z,97439.17
2018-10-12T19:49:30.585Z,97441.98
2018-10-12T19:51:59.394Z,97442.33
2018-10-12T19:54:28.194Z,97445.52
2018-10-12T19:56:56.966Z,97453.77
2018-10-12T19:59:25.806Z,97453.31
2018-10-12T20:01:54.580Z,97451.82
2018-10-12T20:04:23.363Z,97452.73
2018-10-12T20:06:52.185Z,97460.37
2018-10-12T20:09:20.954Z,97456.53
2018-10-12T20:11:49.737Z,97461.65
2018-10-12T20:14:18.545Z,97466.40
2018-10-12T20:16:47.368Z,97466.24
2018-10-12T20:19:16.146Z,97468.98
2018-10-12T20:21:44.939Z,97465.16
2018-10-12T20:24:13.734Z,97467.02
2018-10-12T20:26:42.536Z,97468.88
2018-10-12T20:29:11.325Z,97466.06
2018-10-12T20:31:40.241Z,97467.41
2018-10-12T20:34:08.953Z,97464.59
2018-10-12T20:36:38.121Z,97467.37
2018-10-12T20:39:09.588Z,97471.63
2018-10-12T20:41:38.889Z,97470.52
2018-10-12T20:44:08.301Z,97473.23
2018-10-12T20:46:37.701Z,97470.42
2018-10-12T20:49:06.840Z,97464.73
2018-10-12T20:51:36.109Z,97472.98
2018-10-12T20:54:05.227Z,97471.19
2018-10-12T20:56:34.364Z,97471.48
2018-10-12T20:59:03.647Z,97473.13
2018-10-12T21:01:32.748Z,97473.95
2018-10-12T21:04:02.060Z,97470.34
2018-10-12T21:06:31.369Z,97468.30
2018-10-12T21:09:00.520Z,97465.75
2018-10-12T21:11:29.669Z,97467.34
2018-10-12T21:13:58.827Z,97473.03
2018-10-12T21:16:27.896Z,97469.69
2018-10-12T21:18:57.009Z,97466.05
2018-10-12T21:21:26.119Z,97472.28
2018-10-12T21:23:55.285Z,97472.06
2018-10-12T21:26:24.406Z,97467.92
2018-10-12T21:28:53.473Z,97478.57
2018-10-12T21:31:22.689Z,97471.30
2018-10-12T21:33:51.769Z,97469.25
2018-10-12T21:36:20.886Z,97474.94
2018-10-12T21:38:50.265Z,97463.58
2018-10-12T21:41:19.378Z,97472.58
2018-10-12T21:43:48.622Z,97466.46
2018-10-12T21:46:17.775Z,97462.37
2018-10-12T21:48:46.919Z,97467.09
2018-10-12T21:51:16.062Z,97457.73
2018-10-12T21:53:45.235Z,97457.63
2018-10-12T21:56:14.421Z,97456.89
2018-10-12T21:58:43.553Z,97452.55
2018-10-12T22:01:12.648Z,97449.74
2018-10-12T22:03:41.746Z,97445.56
2018-10-12T22:06:10.851Z,97445.52
2018-10-12T22:08:45.090Z,97447.06
2018-10-12T22:11:14.247Z,97450.45
2018-10-12T22:13:43.618Z,97450.74
2018-10-12T22:16:12.729Z,97452.84
2018-10-12T22:18:41.840Z,97453.00
2018-10-12T22:21:10.936Z,97447.36
2018-10-12T22:23:40.008Z,97457.05
2018-10-12T22:26:09.172Z,97454.75
2018-10-12T22:28:38.309Z,97458.06
2018-10-12T22:31:07.545Z,97454.43
2018-10-12T22:33:36.696Z,97450.33
2018-10-12T22:36:05.817Z,97455.04
2018-10-12T22:38:34.965Z,97447.27
2018-10-12T22:41:04.200Z,97445.69
2018-10-12T22:43:33.305Z,97442.88
2018-10-12T22:46:02.530Z,97445.24
2018-10-12T22:48:31.794Z,97438.26
2018-10-12T22:51:00.901Z,97444.22
2018-10-12T22:53:29.997Z,97443.20
2018-10-12T22:55:59.133Z,97441.67
2018-10-12T22:58:28.341Z,97441.67
2018-10-12T23:00:57.521Z,97444.00
2018-10-12T23:03:26.593Z,97445.28
2018-10-12T23:05:55.816Z,97436.98
2018-10-12T23:08:25.085Z,97441.42
2018-10-12T23:10:54.365Z,97434.44
2018-10-12T23:13:23.521Z,97439.34
2018-10-12T23:15:52.861Z,97426.41
2018-10-12T23:18:21.972Z,97429.24
2018-10-12T23:20:51.061Z,97424.87
2018-10-12T23:23:20.161Z,97431.87
2018-10-12T23:25:49.312Z,97424.35
2018-10-12T23:28:18.491Z,97426.69
2018-10-12T23:30:47.649Z,97426.18
2018-10-12T23:33:27.609Z,97428.77
2018-10-12T23:35:56.693Z,97426.17
2018-10-12T23:38:25.929Z,97422.55
2018-10-12T23:40:55.191Z,97426.69
2018-10-12T23:43:24.285Z,97422.05
2018-10-12T23:45:53.568Z,97417.09
2018-10-12T23:48:22.672Z,97418.94
2018-10-12T23:50:51.792Z,97420.20
2018-10-12T23:53:20.911Z,97421.22
2018-10-12T23:55:50.223Z,97420.69
2018-10-12T23:58:19.460Z,97418.36
